createdAt,value
2023-01-28T00:00:52.415Z,0
2023-01-28T00:02:32.577Z,0
2023-01-28T00:04:12.740Z,0
2023-01-28T00:05:52.895Z,0
2023-01-28T00:07:32.975Z,0
2023-01-28T00:09:13.094Z,0
2023-01-28T00:10:53.245Z,0
2023-01-28T00:12:33.434Z,0
2023-01-28T00:14:13.575Z,0
2023-01-28T00:15:53.726Z,0
2023-01-28T00:17:33.824Z,0
2023-01-28T00:19:13.995Z,0
2023-01-28T00:20:54.159Z,0
2023-01-28T00:22:34.334Z,0
2023-01-28T00:24:14.537Z,0
2023-01-28T00:25:54.623Z,0
2023-01-28T00:27:34.765Z,0
2023-01-28T00:29:14.940Z,0
2023-01-28T00:30:55.064Z,0
2023-01-28T00:32:35.225Z,0
2023-01-28T00:34:15.372Z,0
2023-01-28T00:35:55.546Z,0
2023-01-28T00:37:35.658Z,0
2023-01-28T00:39:15.829Z,0
2023-01-28T00:40:55.999Z,0
2023-01-28T00:42:36.191Z,0
2023-01-28T00:44:16.339Z,0
2023-01-28T00:45:56.561Z,0
2023-01-28T00:47:36.690Z,0
2023-01-28T00:49:16.853Z,0
2023-01-28T00:50:56.988Z,0
2023-01-28T00:52:37.142Z,0
2023-01-28T00:54:17.333Z,0
2023-01-28T00:55:57.554Z,0
2023-01-28T00:57:37.742Z,0
2023-01-28T00:59:17.912Z,0
2023-01-28T01:00:58.047Z,0
2023-01-28T01:02:40.314Z,0
2023-01-28T01:04:18.399Z,0
2023-01-28T01:05:58.538Z,0
2023-01-28T01:07:38.654Z,0
2023-01-28T01:09:18.800Z,0
2023-01-28T01:10:58.938Z,0
2023-01-28T01:12:39.089Z,0
2023-01-28T01:14:19.299Z,0
2023-01-28T01:15:59.480Z,0
2023-01-28T01:17:39.514Z,0
2023-01-28T01:19:19.670Z,0
2023-01-28T01:20:59.785Z,0
2023-01-28T01:22:39.925Z,0
2023-01-28T01:24:20.099Z,0
2023-01-28T01:26:00.169Z,0
2023-01-28T01:27:40.283Z,0
2023-01-28T01:29:20.480Z,0
2023-01-28T01:31:00.665Z,0
2023-01-28T01:32:40.799Z,0
2023-01-28T01:34:20.967Z,0
2023-01-28T01:36:01.158Z,0
2023-01-28T01:37:41.327Z,0
2023-01-28T01:39:21.575Z,0
2023-01-28T01:41:01.703Z,0
2023-01-28T01:42:41.866Z,0
2023-01-28T01:44:22.011Z,0
2023-01-28T01:46:02.274Z,0
2023-01-28T01:47:42.330Z,0
2023-01-28T01:49:22.569Z,0
2023-01-28T01:51:02.685Z,0
2023-01-28T01:52:42.804Z,0
2023-01-28T01:54:22.982Z,0
2023-01-28T01:56:03.124Z,0
2023-01-28T01:57:43.287Z,0
2023-01-28T01:59:23.425Z,0
2023-01-28T02:01:03.539Z,0
2023-01-28T02:02:43.688Z,0
2023-01-28T02:04:23.855Z,0
2023-01-28T02:06:03.974Z,0
2023-01-28T02:07:44.134Z,0
2023-01-28T02:09:24.319Z,0
2023-01-28T02:11:04.484Z,0
2023-01-28T02:12:44.684Z,0
2023-01-28T02:14:30.816Z,0
2023-01-28T02:16:05.038Z,0
2023-01-28T02:17:45.179Z,0
2023-01-28T02:19:25.321Z,0
2023-01-28T02:21:05.492Z,0
2023-01-28T02:22:45.659Z,0
2023-01-28T02:24:25.830Z,0
2023-01-28T02:26:05.942Z,0
2023-01-28T02:27:46.169Z,0
2023-01-28T02:29:26.277Z,0
2023-01-28T02:31:06.482Z,0
2023-01-28T02:32:46.574Z,0
2023-01-28T02:34:26.712Z,0
2023-01-28T02:36:06.859Z,0
2023-01-28T02:37:46.984Z,0
2023-01-28T02:39:27.201Z,0
2023-01-28T02:41:07.309Z,0
2023-01-28T02:42:47.487Z,0
2023-01-28T02:44:27.663Z,0
2023-01-28T02:46:07.867Z,0
2023-01-28T02:47:47.961Z,0
2023-01-28T02:49:28.118Z,0
2023-01-28T02:51:08.223Z,0
2023-01-28T02:52:48.341Z,0
2023-01-28T02:54:28.525Z,0
2023-01-28T02:56:08.697Z,0
2023-01-28T02:57:48.884Z,0
2023-01-28T02:59:29.115Z,0
2023-01-28T03:01:09.247Z,0
2023-01-28T03:02:49.413Z,0
2023-01-28T03:04:29.502Z,0
2023-01-28T03:06:09.668Z,0
2023-01-28T03:07:49.757Z,0
2023-01-28T03:09:29.899Z,0
2023-01-28T03:11:10.074Z,0
2023-01-28T03:12:50.266Z,0
2023-01-28T03:14:30.418Z,0
2023-01-28T03:16:10.656Z,0
2023-01-28T03:17:50.742Z,0
2023-01-28T03:19:30.957Z,0
2023-01-28T03:21:11.103Z,0
2023-01-28T03:22:51.249Z,0
2023-01-28T03:24:31.403Z,0
2023-01-28T03:26:11.544Z,0
2023-01-28T03:27:51.692Z,0
2023-01-28T03:29:31.836Z,0
2023-01-28T03:31:11.968Z,0
2023-01-28T03:32:52.136Z,0
2023-01-28T03:34:32.333Z,0
2023-01-28T03:36:12.463Z,0
2023-01-28T03:37:52.610Z,0
2023-01-28T03:39:32.732Z,0
2023-01-28T03:41:12.901Z,0
2023-01-28T03:42:53.057Z,0
2023-01-28T03:44:33.191Z,0
2023-01-28T03:46:13.466Z,0
2023-01-28T03:47:53.452Z,0
2023-01-28T03:49:33.681Z,0
2023-01-28T03:51:13.843Z,0
2023-01-28T03:52:53.954Z,0
2023-01-28T03:54:34.210Z,0
2023-01-28T03:56:14.339Z,0
2023-01-28T03:57:54.567Z,0
2023-01-28T03:59:34.746Z,0
2023-01-28T04:01:14.870Z,0
2023-01-28T04:02:55.095Z,0
2023-01-28T04:04:35.176Z,0
2023-01-28T04:06:15.276Z,0
2023-01-28T04:07:55.441Z,0
2023-01-28T04:09:35.599Z,0
2023-01-28T04:11:15.952Z,0
2023-01-28T04:12:55.905Z,0
2023-01-28T04:14:36.048Z,0
2023-01-28T04:16:16.277Z,0
2023-01-28T04:17:56.339Z,0
2023-01-28T04:19:36.515Z,0
2023-01-28T04:21:16.672Z,0
2023-01-28T04:22:56.825Z,0
2023-01-28T04:24:37.037Z,0
2023-01-28T04:26:17.092Z,0
2023-01-28T04:27:57.255Z,0
2023-01-28T04:29:37.449Z,0
2023-01-28T04:31:17.696Z,0
2023-01-28T04:32:57.792Z,0
2023-01-28T04:34:37.933Z,0
2023-01-28T04:36:18.054Z,0
2023-01-28T04:37:58.187Z,0
2023-01-28T04:39:38.301Z,0
2023-01-28T04:41:18.423Z,0
2023-01-28T04:42:58.620Z,0
2023-01-28T04:44:38.699Z,0
2023-01-28T04:46:18.926Z,0
2023-01-28T04:47:59.091Z,0
2023-01-28T04:49:39.206Z,0
2023-01-28T04:51:19.356Z,0
2023-01-28T04:52:59.522Z,0
2023-01-28T04:54:39.755Z,0
2023-01-28T04:56:19.883Z,0
2023-01-28T04:58:00.146Z,0
2023-01-28T04:59:40.317Z,0
2023-01-28T05:01:20.419Z,0
2023-01-28T05:03:00.600Z,0
2023-01-28T05:04:40.719Z,0
2023-01-28T05:06:20.854Z,0
2023-01-28T05:08:01.085Z,0
2023-01-28T05:09:41.231Z,0
2023-01-28T05:11:21.368Z,0
2023-01-28T05:13:01.579Z,0
2023-01-28T05:14:41.670Z,0
2023-01-28T05:16:21.799Z,0
2023-01-28T05:18:02.019Z,0
2023-01-28T05:19:42.146Z,0
2023-01-28T05:21:22.292Z,0
2023-01-28T05:23:02.422Z,0
2023-01-28T05:24:42.587Z,0
2023-01-28T05:26:22.732Z,0
2023-01-28T05:28:02.919Z,0
2023-01-28T05:29:43.039Z,0
2023-01-28T05:31:23.154Z,0
2023-01-28T05:33:03.294Z,0
2023-01-28T05:34:43.500Z,0
2023-01-28T05:36:23.601Z,0
2023-01-28T05:38:03.775Z,0
2023-01-28T05:39:43.929Z,0
2023-01-28T05:41:24.136Z,0
2023-01-28T05:43:04.267Z,0
2023-01-28T05:44:44.512Z,0
2023-01-28T05:46:24.667Z,0
2023-01-28T05:48:04.775Z,0
2023-01-28T05:49:44.949Z,0
2023-01-28T05:51:25.105Z,0
2023-01-28T05:53:05.255Z,0
2023-01-28T05:54:45.509Z,0
2023-01-28T05:56:25.684Z,0
2023-01-28T05:58:05.881Z,0
2023-01-28T05:59:46.094Z,0
2023-01-28T06:01:26.238Z,0
2023-01-28T06:03:06.414Z,0
2023-01-28T06:04:46.602Z,0
2023-01-28T06:06:26.738Z,0
2023-01-28T06:08:06.855Z,0
2023-01-28T06:09:47.069Z,0
2023-01-28T06:11:27.200Z,0
2023-01-28T06:13:07.391Z,0
2023-01-28T06:14:47.547Z,0
2023-01-28T06:16:27.727Z,0
2023-01-28T06:18:07.845Z,0
2023-01-28T06:19:47.991Z,0
2023-01-28T06:21:30.146Z,0
2023-01-28T06:23:08.273Z,0
2023-01-28T06:24:48.421Z,1
2023-01-28T06:26:28.539Z,1
2023-01-28T06:28:08.690Z,0
2023-01-28T06:29:48.861Z,1
2023-01-28T06:31:29.073Z,1
2023-01-28T06:33:09.216Z,1
2023-01-28T06:34:49.366Z,2
2023-01-28T06:36:29.502Z,2
2023-01-28T06:38:09.630Z,3
2023-01-28T06:39:49.737Z,4
2023-01-28T06:41:29.920Z,7
2023-01-28T06:43:10.094Z,9
2023-01-28T06:44:50.239Z,11
2023-01-28T06:46:30.448Z,15
2023-01-28T06:48:10.572Z,19
2023-01-28T06:49:50.811Z,24
2023-01-28T06:51:30.957Z,32
2023-01-28T06:53:11.090Z,40
2023-01-28T06:54:51.324Z,51
2023-01-28T06:56:43.623Z,65
2023-01-28T06:58:23.817Z,82
2023-01-28T07:00:03.951Z,103
2023-01-28T07:01:44.153Z,126
2023-01-28T07:03:24.237Z,151
2023-01-28T07:05:04.395Z,181
2023-01-28T07:06:44.517Z,215
2023-01-28T07:08:24.654Z,248
2023-01-28T07:10:04.882Z,275
2023-01-28T07:11:45.004Z,300
2023-01-28T07:13:25.122Z,328
2023-01-28T07:15:05.251Z,360
2023-01-28T07:16:45.404Z,393
2023-01-28T07:18:25.524Z,437
2023-01-28T07:20:05.724Z,499
2023-01-28T07:21:45.884Z,568
2023-01-28T07:25:06.196Z,696
2023-01-28T07:26:46.413Z,789
2023-01-28T07:28:26.574Z,879
2023-01-28T07:30:06.736Z,968
2023-01-28T07:31:47.028Z,1031
2023-01-28T07:33:27.032Z,1045
2023-01-28T07:35:07.319Z,1048
2023-01-28T07:36:47.334Z,1054
2023-01-28T07:38:27.489Z,1117
2023-01-28T07:40:07.650Z,1220
2023-01-28T07:41:47.810Z,1122
2023-01-28T07:43:28.017Z,1066
2023-01-28T07:45:08.160Z,1124
2023-01-28T07:46:48.378Z,1223
2023-01-28T07:48:28.469Z,1334
2023-01-28T07:50:08.633Z,1408
2023-01-28T07:51:48.779Z,1447
2023-01-28T07:53:29.022Z,1470
2023-01-28T07:55:09.240Z,1507
2023-01-28T07:56:49.368Z,1572
2023-01-28T07:58:29.511Z,1594
2023-01-28T08:00:09.642Z,1556
2023-01-28T08:01:49.779Z,1572
2023-01-28T08:03:29.955Z,1758
2023-01-28T08:05:10.307Z,2095
2023-01-28T08:06:50.348Z,2050
2023-01-28T08:08:30.491Z,1814
2023-01-28T08:10:10.671Z,1790
2023-01-28T08:11:50.799Z,1890
2023-01-28T08:13:30.981Z,2084
2023-01-28T08:15:11.155Z,2422
2023-01-28T08:16:51.315Z,2619
2023-01-28T08:18:32.621Z,2673
2023-01-28T08:20:11.649Z,2521
2023-01-28T08:21:51.816Z,2420
2023-01-28T08:23:31.952Z,2463
2023-01-28T08:25:12.104Z,2655
2023-01-28T08:26:52.244Z,2865
2023-01-28T08:28:32.378Z,2964
2023-01-28T08:30:13.008Z,2950
2023-01-28T08:31:52.775Z,3496
2023-01-28T08:33:32.790Z,3932
2023-01-28T08:35:12.931Z,4082
2023-01-28T08:36:53.087Z,4101
2023-01-28T08:38:33.313Z,4020
2023-01-28T08:40:13.955Z,3954
2023-01-28T08:41:53.535Z,4584
2023-01-28T08:43:33.726Z,5651
2023-01-28T08:45:13.943Z,5415
2023-01-28T08:46:54.082Z,4450
2023-01-28T08:48:34.220Z,5135
2023-01-28T08:50:14.676Z,5820
2023-01-28T08:51:54.487Z,5612
2023-01-28T08:53:34.665Z,5737
2023-01-28T08:55:14.934Z,6193
2023-01-28T08:56:55.028Z,6545
2023-01-28T08:58:35.238Z,6531
2023-01-28T09:00:15.826Z,6403
2023-01-28T09:01:55.601Z,6390
2023-01-28T09:03:35.728Z,6824
2023-01-28T09:05:15.821Z,7190
2023-01-28T09:06:56.099Z,6970
2023-01-28T09:08:36.119Z,6936
2023-01-28T09:10:16.748Z,7321
2023-01-28T09:11:56.412Z,7571
2023-01-28T09:13:36.531Z,7170
2023-01-28T09:15:16.661Z,6739
2023-01-28T09:16:56.854Z,6990
2023-01-28T09:18:37.068Z,7602
2023-01-28T09:20:17.780Z,6834
2023-01-28T09:21:57.399Z,5949
2023-01-28T09:23:37.503Z,6682
2023-01-28T09:25:17.696Z,8415
2023-01-28T09:26:57.870Z,8667
2023-01-28T09:28:37.981Z,7747
2023-01-28T09:30:18.628Z,6568
2023-01-28T09:31:58.432Z,5456
2023-01-28T09:33:38.443Z,4644
2023-01-28T09:35:18.593Z,4226
2023-01-28T09:36:58.778Z,4174
2023-01-28T09:38:38.873Z,4253
2023-01-28T09:40:19.046Z,4403
2023-01-28T09:41:59.224Z,4974
2023-01-28T09:43:39.353Z,6312
2023-01-28T09:45:19.585Z,8452
2023-01-28T09:46:59.892Z,9361
2023-01-28T09:48:39.894Z,9573
2023-01-28T09:50:20.048Z,10341
2023-01-28T09:52:00.182Z,11670
2023-01-28T09:53:40.346Z,13402
2023-01-28T09:55:20.537Z,14541
2023-01-28T09:57:00.661Z,15412
2023-01-28T09:58:40.867Z,15738
2023-01-28T10:00:21.535Z,15572
2023-01-28T10:02:01.120Z,15389
2023-01-28T10:03:41.330Z,14409
2023-01-28T10:05:21.430Z,12974
2023-01-28T10:07:01.584Z,11696
2023-01-28T10:08:41.670Z,10747
2023-01-28T10:10:21.801Z,9856
2023-01-28T10:12:01.966Z,9461
2023-01-28T10:13:42.114Z,9265
2023-01-28T10:15:22.268Z,8924
2023-01-28T10:17:02.406Z,8449
2023-01-28T10:18:42.540Z,7944
2023-01-28T10:20:22.788Z,7546
2023-01-28T10:22:02.859Z,7245
2023-01-28T10:23:43.077Z,6964
2023-01-28T10:25:23.226Z,6771
2023-01-28T10:27:03.419Z,6730
2023-01-28T10:28:43.550Z,6832
2023-01-28T10:30:23.691Z,6884
2023-01-28T10:32:03.829Z,6719
2023-01-28T10:33:43.980Z,6561
2023-01-28T10:35:24.127Z,6689
2023-01-28T10:37:04.246Z,6923
2023-01-28T10:38:44.450Z,7052
2023-01-28T10:40:24.595Z,7299
2023-01-28T10:42:04.770Z,7451
2023-01-28T10:43:44.925Z,7624
2023-01-28T10:45:25.074Z,8001
2023-01-28T10:47:05.232Z,8468
2023-01-28T10:48:45.409Z,8697
2023-01-28T10:50:25.637Z,8718
2023-01-28T10:52:17.990Z,8936
2023-01-28T10:53:58.156Z,8980
2023-01-28T10:55:38.348Z,8871
2023-01-28T10:57:18.520Z,8569
2023-01-28T10:58:58.698Z,8284
2023-01-28T11:00:38.844Z,8370
2023-01-28T11:02:19.093Z,8414
2023-01-28T11:03:59.125Z,8268
2023-01-28T11:05:39.262Z,8409
2023-01-28T11:07:19.424Z,8562
2023-01-28T11:09:01.444Z,8502
2023-01-28T11:10:39.721Z,8382
2023-01-28T11:12:19.834Z,8126
2023-01-28T11:14:00.036Z,7598
2023-01-28T11:15:40.205Z,7125
2023-01-28T11:17:20.401Z,7142
2023-01-28T11:19:00.493Z,7390
2023-01-28T11:20:40.716Z,7445
2023-01-28T11:22:20.841Z,7330
2023-01-28T11:24:01.007Z,7320
2023-01-28T11:25:41.081Z,7333
2023-01-28T11:27:21.236Z,7315
2023-01-28T11:29:01.628Z,7198
2023-01-28T11:30:41.703Z,6928
2023-01-28T11:32:21.766Z,6583
2023-01-28T11:34:01.923Z,6294
2023-01-28T11:35:42.092Z,6068
2023-01-28T11:37:22.209Z,5504
2023-01-28T11:39:02.383Z,4932
2023-01-28T11:40:42.517Z,4770
2023-01-28T11:42:22.672Z,6285
2023-01-28T11:44:02.762Z,7731
2023-01-28T11:45:46.127Z,8805
2023-01-28T11:47:23.146Z,10374
2023-01-28T11:49:03.263Z,11315
2023-01-28T11:50:43.400Z,11964
2023-01-28T11:52:23.586Z,11789
2023-01-28T11:54:03.673Z,12015
2023-01-28T11:55:43.928Z,11217
2023-01-28T11:57:24.037Z,11103
2023-01-28T11:59:04.204Z,11486
2023-01-28T12:00:44.298Z,11520
2023-01-28T12:02:24.486Z,11168
2023-01-28T12:04:04.592Z,10961
2023-01-28T12:05:44.754Z,10887
2023-01-28T12:07:24.911Z,11427
2023-01-28T12:09:05.053Z,11928
2023-01-28T12:10:45.190Z,11933
2023-01-28T12:12:25.346Z,12379
2023-01-28T12:14:05.574Z,12436
2023-01-28T12:15:45.719Z,12013
2023-01-28T12:17:26.385Z,12027
2023-01-28T12:19:06.021Z,12041
2023-01-28T12:20:46.228Z,11548
2023-01-28T12:22:29.439Z,11256
2023-01-28T12:24:06.543Z,11602
2023-01-28T12:25:46.696Z,11786
2023-01-28T12:27:26.833Z,11979
2023-01-28T12:29:07.012Z,11852
2023-01-28T12:30:47.276Z,12050
2023-01-28T12:32:27.345Z,12059
2023-01-28T12:34:07.546Z,11835
2023-01-28T12:35:47.704Z,12416
2023-01-28T12:37:27.865Z,13400
2023-01-28T12:39:08.013Z,14267
2023-01-28T12:40:48.194Z,14055
2023-01-28T12:42:28.319Z,13869
2023-01-28T12:44:08.474Z,14858
2023-01-28T12:45:48.694Z,15514
2023-01-28T12:47:28.859Z,15557
2023-01-28T12:49:09.000Z,15721
2023-01-28T12:50:49.192Z,15891
2023-01-28T12:52:29.352Z,14512
2023-01-28T12:54:09.504Z,13932
2023-01-28T12:55:49.695Z,13563
2023-01-28T12:57:29.991Z,12482
2023-01-28T12:59:10.090Z,12139
2023-01-28T13:00:50.314Z,12216
2023-01-28T13:02:30.484Z,11809
2023-01-28T13:04:10.626Z,11940
2023-01-28T13:05:50.743Z,12229
2023-01-28T13:07:30.899Z,12343
2023-01-28T13:09:11.046Z,12743
2023-01-28T13:10:51.169Z,12902
2023-01-28T13:12:31.337Z,13239
2023-01-28T13:14:11.547Z,14340
2023-01-28T13:15:51.676Z,14874
2023-01-28T13:17:31.832Z,14626
2023-01-28T13:19:12.002Z,14541
2023-01-28T13:20:54.762Z,15165
2023-01-28T13:22:32.282Z,19440
2023-01-28T13:24:12.438Z,17288
2023-01-28T13:25:52.579Z,17768
2023-01-28T13:27:32.712Z,17632
2023-01-28T13:29:12.896Z,17936
2023-01-28T13:30:53.043Z,25176
2023-01-28T13:32:33.248Z,32912
2023-01-28T13:34:13.287Z,15569
2023-01-28T13:35:53.475Z,17464
2023-01-28T13:37:33.602Z,19440
2023-01-28T13:39:13.765Z,30528
2023-01-28T13:40:53.949Z,24232
2023-01-28T13:42:34.079Z,22040
2023-01-28T13:44:14.216Z,23864
2023-01-28T13:45:54.453Z,22656
2023-01-28T13:47:34.576Z,19600
2023-01-28T13:49:14.693Z,25440
2023-01-28T13:50:54.929Z,24936
2023-01-28T13:52:35.019Z,14144
2023-01-28T13:54:15.144Z,16408
2023-01-28T13:55:55.368Z,16104
2023-01-28T13:57:35.535Z,16784
2023-01-28T13:59:15.727Z,18928
2023-01-28T14:00:56.101Z,16240
2023-01-28T14:02:36.383Z,15088
2023-01-28T14:04:16.582Z,8005
2023-01-28T14:05:59.817Z,8134
2023-01-28T14:07:36.996Z,8238
2023-01-28T14:09:19.293Z,8359
2023-01-28T14:10:57.220Z,7746
2023-01-28T14:12:37.371Z,6911
2023-01-28T14:14:17.564Z,6568
2023-01-28T14:15:57.766Z,6355
2023-01-28T14:17:37.937Z,6385
2023-01-28T14:19:18.079Z,6573
2023-01-28T14:20:58.264Z,6967
2023-01-28T14:22:38.386Z,8371
2023-01-28T14:24:18.684Z,9047
2023-01-28T14:25:58.707Z,8130
2023-01-28T14:27:38.823Z,7196
2023-01-28T14:29:19.055Z,6887
2023-01-28T14:30:59.296Z,6932
2023-01-28T14:32:39.357Z,7026
2023-01-28T14:34:19.503Z,6643
2023-01-28T14:35:59.665Z,6589
2023-01-28T14:37:39.840Z,6743
2023-01-28T14:39:19.971Z,6583
2023-01-28T14:41:00.270Z,6064
2023-01-28T14:42:40.304Z,5558
2023-01-28T14:44:20.405Z,5503
2023-01-28T14:46:00.597Z,5752
2023-01-28T14:47:40.750Z,5743
2023-01-28T14:49:20.887Z,5742
2023-01-28T14:51:01.015Z,5875
2023-01-28T14:52:41.196Z,5718
2023-01-28T14:54:21.370Z,5569
2023-01-28T14:56:01.570Z,5542
2023-01-28T14:57:41.732Z,5424
2023-01-28T14:59:21.865Z,5468
2023-01-28T15:01:01.966Z,5669
2023-01-28T15:02:42.210Z,5722
2023-01-28T15:04:22.322Z,5369
2023-01-28T15:06:02.456Z,5238
2023-01-28T15:07:42.620Z,5199
2023-01-28T15:09:22.753Z,5129
2023-01-28T15:11:02.928Z,4996
2023-01-28T15:12:43.096Z,4708
2023-01-28T15:14:23.267Z,4336
2023-01-28T15:16:03.413Z,3994
2023-01-28T15:17:43.588Z,3698
2023-01-28T15:19:23.691Z,3490
2023-01-28T15:21:03.800Z,3378
2023-01-28T15:22:43.956Z,3348
2023-01-28T15:24:24.132Z,3271
2023-01-28T15:26:04.276Z,3157
2023-01-28T15:27:44.461Z,3005
2023-01-28T15:29:24.583Z,2922
2023-01-28T15:31:07.935Z,2726
2023-01-28T15:32:44.843Z,2512
2023-01-28T15:34:24.973Z,2345
2023-01-28T15:36:05.089Z,2212
2023-01-28T15:37:45.245Z,2091
2023-01-28T15:39:25.357Z,1969
2023-01-28T15:41:05.482Z,1853
2023-01-28T15:42:45.600Z,1739
2023-01-28T15:44:25.745Z,1626
2023-01-28T15:46:05.918Z,1517
2023-01-28T15:47:46.185Z,1413
2023-01-28T15:49:26.285Z,1306
2023-01-28T15:51:09.516Z,1198
2023-01-28T15:52:46.589Z,1094
2023-01-28T15:54:26.740Z,995
2023-01-28T15:56:06.906Z,899
2023-01-28T15:57:47.082Z,808
2023-01-28T15:59:27.260Z,719
2023-01-28T16:01:07.500Z,637
2023-01-28T16:02:47.530Z,561
2023-01-28T16:04:27.663Z,490
2023-01-28T16:06:09.607Z,424
2023-01-28T16:07:48.002Z,364
2023-01-28T16:09:28.187Z,309
2023-01-28T16:11:08.320Z,260
2023-01-28T16:12:48.427Z,213
2023-01-28T16:14:28.630Z,171
2023-01-28T16:16:08.839Z,137
2023-01-28T16:17:48.913Z,114
2023-01-28T16:19:29.060Z,89
2023-01-28T16:21:10.578Z,69
2023-01-28T16:22:49.381Z,53
2023-01-28T16:24:29.629Z,41
2023-01-28T16:26:09.695Z,31
2023-01-28T16:27:49.851Z,24
2023-01-28T16:29:31.074Z,18
2023-01-28T16:31:10.343Z,13
2023-01-28T16:32:50.380Z,10
2023-01-28T16:34:30.636Z,7
2023-01-28T16:36:10.696Z,5
2023-01-28T16:37:50.847Z,4
2023-01-28T16:39:34.080Z,3
2023-01-28T16:41:11.219Z,2
2023-01-28T16:42:51.351Z,2
2023-01-28T16:44:31.496Z,2
2023-01-28T16:46:11.663Z,1
2023-01-28T16:47:51.865Z,1
2023-01-28T16:49:32.021Z,1
2023-01-28T16:51:12.186Z,0
2023-01-28T16:52:52.313Z,0
2023-01-28T16:54:32.473Z,1
2023-01-28T16:56:24.962Z,0
2023-01-28T16:57:52.804Z,0
2023-01-28T16:59:32.976Z,0
2023-01-28T17:01:13.143Z,0
2023-01-28T17:02:53.235Z,0
2023-01-28T17:04:33.404Z,0
2023-01-28T17:06:13.555Z,0
2023-01-28T17:07:56.726Z,0
2023-01-28T17:09:33.818Z,0
2023-01-28T17:11:13.945Z,0
2023-01-28T17:12:54.099Z,0
2023-01-28T17:14:34.251Z,0
2023-01-28T17:16:14.462Z,0
2023-01-28T17:17:54.591Z,0
2023-01-28T17:19:34.776Z,0
2023-01-28T17:21:15.017Z,0
2023-01-28T17:22:55.311Z,0
2023-01-28T17:24:35.455Z,0
2023-01-28T17:26:15.565Z,0
2023-01-28T17:27:55.733Z,0
2023-01-28T17:29:35.884Z,0
2023-01-28T17:31:16.120Z,0
2023-01-28T17:32:56.164Z,0
2023-01-28T17:34:36.334Z,0
2023-01-28T17:36:16.439Z,0
2023-01-28T17:37:56.607Z,0
2023-01-28T17:39:36.725Z,0
2023-01-28T17:41:16.896Z,0
2023-01-28T17:42:57.034Z,0
2023-01-28T17:44:37.213Z,0
2023-01-28T17:46:17.533Z,0
2023-01-28T17:47:57.586Z,0
2023-01-28T17:49:37.717Z,0
2023-01-28T17:51:17.867Z,0
2023-01-28T17:52:58.077Z,0
2023-01-28T17:54:38.259Z,0
2023-01-28T17:56:18.480Z,0
2023-01-28T17:57:58.615Z,0
2023-01-28T17:59:38.775Z,0
2023-01-28T18:01:18.989Z,0
2023-01-28T18:02:59.127Z,0
2023-01-28T18:04:39.336Z,0
2023-01-28T18:06:19.468Z,0
2023-01-28T18:07:59.547Z,0
2023-01-28T18:09:39.698Z,0
2023-01-28T18:11:19.846Z,0
2023-01-28T18:12:59.986Z,0
2023-01-28T18:14:40.161Z,0
2023-01-28T18:16:20.354Z,0
2023-01-28T18:18:00.479Z,0
2023-01-28T18:19:40.646Z,0
2023-01-28T18:21:20.811Z,0
2023-01-28T18:23:00.956Z,0
2023-01-28T18:24:41.092Z,0
2023-01-28T18:26:21.224Z,0
2023-01-28T18:28:01.432Z,0
2023-01-28T18:29:41.583Z,0
2023-01-28T18:31:21.740Z,0
2023-01-28T18:33:01.883Z,0
2023-01-28T18:34:42.064Z,0
2023-01-28T18:36:22.240Z,0
2023-01-28T18:38:02.372Z,0
2023-01-28T18:39:44.421Z,0
2023-01-28T18:41:22.657Z,0
2023-01-28T18:43:02.779Z,0
2023-01-28T18:44:53.632Z,0
2023-01-28T18:46:33.785Z,0
2023-01-28T18:48:13.973Z,0
2023-01-28T18:49:54.099Z,0
2023-01-28T18:51:34.237Z,0
2023-01-28T18:53:14.400Z,0
2023-01-28T18:54:54.541Z,0
2023-01-28T18:56:34.705Z,0
2023-01-28T18:58:17.919Z,0
2023-01-28T18:59:55.034Z,0
2023-01-28T19:01:35.333Z,0
2023-01-28T19:03:15.387Z,0
2023-01-28T19:04:55.503Z,0
2023-01-28T19:06:35.637Z,0
2023-01-28T19:08:15.798Z,0
2023-01-28T19:09:59.017Z,0
2023-01-28T19:11:36.089Z,0
2023-01-28T19:13:16.230Z,0
2023-01-28T19:14:56.385Z,0
2023-01-28T19:16:36.538Z,0
2023-01-28T19:18:16.631Z,0
2023-01-28T19:19:56.811Z,0
2023-01-28T19:21:36.939Z,0
2023-01-28T19:23:17.101Z,0
2023-01-28T19:24:57.243Z,0
2023-01-28T19:26:37.362Z,0
2023-01-28T19:28:17.514Z,0
2023-01-28T19:29:57.694Z,0
2023-01-28T19:31:37.939Z,0
2023-01-28T19:33:17.970Z,0
2023-01-28T19:34:58.149Z,0
2023-01-28T19:36:38.323Z,0
2023-01-28T19:38:18.436Z,0
2023-01-28T19:39:58.598Z,0
2023-01-28T19:41:38.800Z,0
2023-01-28T19:43:18.917Z,0
2023-01-28T19:44:59.103Z,0
2023-01-28T19:46:39.273Z,0
2023-01-28T19:48:19.374Z,0
2023-01-28T19:49:59.533Z,0
2023-01-28T19:51:39.690Z,0
2023-01-28T19:53:19.839Z,0
2023-01-28T19:55:00.037Z,0
2023-01-28T19:56:40.149Z,0
2023-01-28T19:58:20.294Z,0
2023-01-28T20:00:00.493Z,0
2023-01-28T20:01:40.689Z,0
2023-01-28T20:03:20.805Z,0
2023-01-28T20:05:01.467Z,0
2023-01-28T20:06:41.076Z,0
2023-01-28T20:08:21.249Z,0
2023-01-28T20:10:01.416Z,0
2023-01-28T20:11:41.525Z,0
2023-01-28T20:13:21.700Z,0
2023-01-28T20:15:01.919Z,0
2023-01-28T20:16:41.994Z,0
2023-01-28T20:18:22.174Z,0
2023-01-28T20:20:02.320Z,0
2023-01-28T20:21:42.475Z,0
2023-01-28T20:23:22.671Z,0
2023-01-28T20:25:03.020Z,0
2023-01-28T20:26:43.009Z,0
2023-01-28T20:28:23.109Z,0
2023-01-28T20:30:03.292Z,0
2023-01-28T20:31:43.611Z,0
2023-01-28T20:33:23.615Z,0
2023-01-28T20:35:03.772Z,0
2023-01-28T20:36:43.940Z,0
2023-01-28T20:38:24.069Z,0
2023-01-28T20:40:04.273Z,0
2023-01-28T20:41:44.484Z,0
2023-01-28T20:43:24.652Z,0
2023-01-28T20:45:04.795Z,0
2023-01-28T20:46:44.972Z,0
2023-01-28T20:48:25.095Z,0
2023-01-28T20:50:05.263Z,0
2023-01-28T20:51:45.420Z,0
2023-01-28T20:53:25.542Z,0
2023-01-28T20:55:05.757Z,0
2023-01-28T20:56:45.915Z,0
2023-01-28T20:58:26.017Z,0
2023-01-28T21:00:06.196Z,0
2023-01-28T21:01:46.483Z,0
2023-01-28T21:03:26.535Z,0
2023-01-28T21:05:06.677Z,0
2023-01-28T21:06:46.820Z,0
2023-01-28T21:08:27.002Z,0
2023-01-28T21:10:07.161Z,0
2023-01-28T21:11:47.304Z,0
2023-01-28T21:13:27.457Z,0
2023-01-28T21:15:07.568Z,0
2023-01-28T21:16:47.746Z,0
2023-01-28T21:18:30.930Z,0
2023-01-28T21:20:08.036Z,0
2023-01-28T21:21:48.184Z,0
2023-01-28T21:23:28.346Z,0
2023-01-28T21:25:08.470Z,0
2023-01-28T21:26:48.609Z,0
2023-01-28T21:28:28.769Z,0
2023-01-28T21:30:08.894Z,0
2023-01-28T21:31:49.141Z,0
2023-01-28T21:33:29.194Z,0
2023-01-28T21:35:09.293Z,0
2023-01-28T21:36:49.431Z,0
2023-01-28T21:38:29.571Z,0
2023-01-28T21:40:09.760Z,0
2023-01-28T21:41:49.970Z,0
2023-01-28T21:43:30.149Z,0
2023-01-28T21:45:10.293Z,0
2023-01-28T21:46:50.431Z,0
2023-01-28T21:48:30.605Z,0
2023-01-28T21:50:10.755Z,0
2023-01-28T21:51:50.880Z,0
2023-01-28T21:53:32.102Z,0
2023-01-28T21:55:11.310Z,0
2023-01-28T21:56:51.459Z,0
2023-01-28T21:58:31.661Z,0
2023-01-28T22:00:15.576Z,0
2023-01-28T22:01:52.046Z,0
2023-01-28T22:03:32.126Z,0
2023-01-28T22:05:12.269Z,0
2023-01-28T22:06:52.396Z,0
2023-01-28T22:08:32.540Z,0
2023-01-28T22:10:12.666Z,0
2023-01-28T22:11:52.814Z,0
2023-01-28T22:13:32.949Z,0
2023-01-28T22:15:13.117Z,0
2023-01-28T22:16:53.332Z,0
2023-01-28T22:18:33.539Z,0
2023-01-28T22:20:14.313Z,0
2023-01-28T22:21:54.036Z,0
2023-01-28T22:23:34.266Z,0
2023-01-28T22:25:14.444Z,0
2023-01-28T22:26:54.618Z,0
2023-01-28T22:28:34.833Z,0
2023-01-28T22:30:15.410Z,0
2023-01-28T22:31:55.303Z,0
2023-01-28T22:33:35.352Z,0
2023-01-28T22:35:15.505Z,0
2023-01-28T22:36:55.660Z,0
2023-01-28T22:38:35.824Z,0
2023-01-28T22:40:16.343Z,0
2023-01-28T22:41:56.214Z,0
2023-01-28T22:43:36.369Z,0
2023-01-28T22:45:16.537Z,0
2023-01-28T22:46:56.781Z,0
2023-01-28T22:48:36.920Z,0
2023-01-28T22:50:17.482Z,0
2023-01-28T22:51:57.307Z,0
2023-01-28T22:53:37.407Z,0
2023-01-28T22:55:17.650Z,0
2023-01-28T22:56:57.783Z,0
2023-01-28T22:58:37.913Z,0
2023-01-28T23:00:18.476Z,0
2023-01-28T23:01:58.389Z,0
2023-01-28T23:03:38.403Z,0
2023-01-28T23:05:18.555Z,0
2023-01-28T23:06:58.711Z,0
2023-01-28T23:08:38.844Z,0
2023-01-28T23:10:19.231Z,0
2023-01-28T23:11:59.102Z,0
2023-01-28T23:13:39.240Z,0
2023-01-28T23:15:19.395Z,0
2023-01-28T23:16:59.563Z,0
2023-01-28T23:18:39.617Z,0
2023-01-28T23:20:19.773Z,0
2023-01-28T23:21:59.883Z,0
2023-01-28T23:23:40.034Z,0
2023-01-28T23:25:20.125Z,0
2023-01-28T23:27:00.256Z,0
2023-01-28T23:28:40.423Z,0
2023-01-28T23:30:20.547Z,0
2023-01-28T23:32:00.716Z,0
2023-01-28T23:33:40.880Z,0
2023-01-28T23:35:21.024Z,0
2023-01-28T23:37:01.153Z,0